sensor_id;sensor_type;location;lat;lon;timestamp;P1;durP1;ratioP1;P2;durP2;ratioP2
74269;SDS011;62754;48.252;11.654;2023-03-19T00:00:04;13.05;;;7.28;;
74269;SDS011;62754;48.252;11.654;2023-03-19T00:02:31;12.38;;;8.00;;
74269;SDS011;62754;48.252;11.654;2023-03-19T00:04:56;11.73;;;6.40;;
74269;SDS011;62754;48.252;11.654;2023-03-19T00:07:22;14.45;;;7.22;;
74269;SDS011;62754;48.252;11.654;2023-03-19T00:09:48;13.45;;;7.53;;
74269;SDS011;62754;48.252;11.654;2023-03-19T00:12:14;12.00;;;7.60;;
74269;SDS011;62754;48.252;11.654;2023-03-19T00:14:39;15.32;;;7.22;;
74269;SDS011;62754;48.252;11.654;2023-03-19T00:17:05;12.68;;;7.97;;
74269;SDS011;62754;48.252;11.654;2023-03-19T00:19:31;14.23;;;7.20;;
74269;SDS011;62754;48.252;11.654;2023-03-19T00:21:57;11.75;;;6.90;;
74269;SDS011;62754;48.252;11.654;2023-03-19T00:24:23;12.25;;;7.10;;
74269;SDS011;62754;48.252;11.654;2023-03-19T00:26:49;13.55;;;7.22;;
74269;SDS011;62754;48.252;11.654;2023-03-19T00:29:15;15.30;;;7.35;;
74269;SDS011;62754;48.252;11.654;2023-03-19T00:31:41;14.48;;;7.38;;
74269;SDS011;62754;48.252;11.654;2023-03-19T00:34:07;13.25;;;8.30;;
74269;SDS011;62754;48.252;11.654;2023-03-19T00:36:33;13.13;;;7.82;;
74269;SDS011;62754;48.252;11.654;2023-03-19T00:38:59;15.45;;;8.90;;
74269;SDS011;62754;48.252;11.654;2023-03-19T00:41:25;15.30;;;8.65;;
74269;SDS011;62754;48.252;11.654;2023-03-19T00:43:52;12.82;;;8.02;;
74269;SDS011;62754;48.252;11.654;2023-03-19T00:46:18;14.65;;;8.73;;
74269;SDS011;62754;48.252;11.654;2023-03-19T00:48:44;12.77;;;7.72;;
74269;SDS011;62754;48.252;11.654;2023-03-19T00:51:10;14.10;;;7.93;;
74269;SDS011;62754;48.252;11.654;2023-03-19T00:53:39;16.33;;;8.60;;
74269;SDS011;62754;48.252;11.654;2023-03-19T00:56:07;14.18;;;7.30;;
74269;SDS011;62754;48.252;11.654;2023-03-19T00:58:34;12.48;;;6.88;;
74269;SDS011;62754;48.252;11.654;2023-03-19T01:01:00;14.48;;;6.85;;
74269;SDS011;62754;48.252;11.654;2023-03-19T01:03:26;15.55;;;6.35;;
74269;SDS011;62754;48.252;11.654;2023-03-19T01:05:52;11.48;;;7.03;;
74269;SDS011;62754;48.252;11.654;2023-03-19T01:08:18;11.70;;;6.97;;
74269;SDS011;62754;48.252;11.654;2023-03-19T01:10:44;10.40;;;6.40;;
74269;SDS011;62754;48.252;11.654;2023-03-19T01:13:11;12.68;;;6.90;;
74269;SDS011;62754;48.252;11.654;2023-03-19T01:15:38;11.50;;;6.70;;
74269;SDS011;62754;48.252;11.654;2023-03-19T01:18:05;12.30;;;7.70;;
74269;SDS011;62754;48.252;11.654;2023-03-19T01:20:31;13.95;;;8.15;;
74269;SDS011;62754;48.252;11.654;2023-03-19T01:22:58;12.27;;;6.65;;
74269;SDS011;62754;48.252;11.654;2023-03-19T01:25:23;10.90;;;6.85;;
74269;SDS011;62754;48.252;11.654;2023-03-19T01:27:50;12.23;;;6.93;;
74269;SDS011;62754;48.252;11.654;2023-03-19T01:30:16;12.35;;;7.03;;
74269;SDS011;62754;48.252;11.654;2023-03-19T01:32:41;14.57;;;7.28;;
74269;SDS011;62754;48.252;11.654;2023-03-19T01:35:07;11.02;;;7.20;;
74269;SDS011;62754;48.252;11.654;2023-03-19T01:37:33;10.88;;;7.00;;
74269;SDS011;62754;48.252;11.654;2023-03-19T01:39:59;12.25;;;6.93;;
74269;SDS011;62754;48.252;11.654;2023-03-19T01:42:25;12.18;;;6.97;;
74269;SDS011;62754;48.252;11.654;2023-03-19T01:44:51;15.23;;;7.22;;
74269;SDS011;62754;48.252;11.654;2023-03-19T01:47:18;10.48;;;7.22;;
74269;SDS011;62754;48.252;11.654;2023-03-19T01:49:46;16.10;;;7.53;;
74269;SDS011;62754;48.252;11.654;2023-03-19T01:52:18;11.00;;;7.22;;
74269;SDS011;62754;48.252;11.654;2023-03-19T01:54:44;12.70;;;7.68;;
74269;SDS011;62754;48.252;11.654;2023-03-19T01:57:11;14.63;;;9.38;;
74269;SDS011;62754;48.252;11.654;2023-03-19T01:59:40;12.55;;;7.43;;
74269;SDS011;62754;48.252;11.654;2023-03-19T02:04:52;12.75;;;7.68;;
74269;SDS011;62754;48.252;11.654;2023-03-19T02:07:23;11.95;;;7.28;;
74269;SDS011;62754;48.252;11.654;2023-03-19T02:09:49;11.90;;;7.97;;
74269;SDS011;62754;48.252;11.654;2023-03-19T02:12:15;11.77;;;6.78;;
74269;SDS011;62754;48.252;11.654;2023-03-19T02:14:42;13.00;;;6.75;;
74269;SDS011;62754;48.252;11.654;2023-03-19T02:17:08;13.48;;;7.47;;
74269;SDS011;62754;48.252;11.654;2023-03-19T02:22:02;11.20;;;7.20;;
74269;SDS011;62754;48.252;11.654;2023-03-19T02:24:32;12.68;;;7.43;;
74269;SDS011;62754;48.252;11.654;2023-03-19T02:27:02;13.98;;;7.53;;
74269;SDS011;62754;48.252;11.654;2023-03-19T02:29:28;13.50;;;7.65;;
74269;SDS011;62754;48.252;11.654;2023-03-19T02:31:54;11.10;;;6.85;;
74269;SDS011;62754;48.252;11.654;2023-03-19T02:36:49;15.98;;;8.13;;
74269;SDS011;62754;48.252;11.654;2023-03-19T02:39:24;15.30;;;8.93;;
74269;SDS011;62754;48.252;11.654;2023-03-19T02:41:54;11.80;;;7.75;;
74269;SDS011;62754;48.252;11.654;2023-03-19T02:44:23;17.13;;;8.85;;
74269;SDS011;62754;48.252;11.654;2023-03-19T02:46:49;14.27;;;7.78;;
74269;SDS011;62754;48.252;11.654;2023-03-19T02:49:14;13.68;;;8.48;;
74269;SDS011;62754;48.252;11.654;2023-03-19T02:51:40;13.35;;;7.60;;
74269;SDS011;62754;48.252;11.654;2023-03-19T02:54:06;13.57;;;7.55;;
74269;SDS011;62754;48.252;11.654;2023-03-19T02:56:32;15.60;;;7.90;;
74269;SDS011;62754;48.252;11.654;2023-03-19T02:58:58;15.60;;;8.27;;
74269;SDS011;62754;48.252;11.654;2023-03-19T03:01:24;14.52;;;8.20;;
74269;SDS011;62754;48.252;11.654;2023-03-19T03:03:50;11.90;;;8.15;;
74269;SDS011;62754;48.252;11.654;2023-03-19T03:06:16;13.93;;;7.88;;
74269;SDS011;62754;48.252;11.654;2023-03-19T03:08:41;12.05;;;7.82;;
74269;SDS011;62754;48.252;11.654;2023-03-19T03:11:07;13.35;;;8.30;;
74269;SDS011;62754;48.252;11.654;2023-03-19T03:13:33;15.20;;;7.68;;
74269;SDS011;62754;48.252;11.654;2023-03-19T03:15:59;15.15;;;8.38;;
74269;SDS011;62754;48.252;11.654;2023-03-19T03:18:24;13.95;;;8.93;;
74269;SDS011;62754;48.252;11.654;2023-03-19T03:20:50;14.57;;;9.32;;
74269;SDS011;62754;48.252;11.654;2023-03-19T03:23:16;13.40;;;8.43;;
74269;SDS011;62754;48.252;11.654;2023-03-19T03:25:42;18.20;;;8.75;;
74269;SDS011;62754;48.252;11.654;2023-03-19T03:28:07;17.48;;;9.18;;
74269;SDS011;62754;48.252;11.654;2023-03-19T03:30:33;13.57;;;8.65;;
74269;SDS011;62754;48.252;11.654;2023-03-19T03:32:59;15.75;;;8.32;;
74269;SDS011;62754;48.252;11.654;2023-03-19T03:35:25;16.95;;;8.18;;
74269;SDS011;62754;48.252;11.654;2023-03-19T03:37:50;13.23;;;7.50;;
74269;SDS011;62754;48.252;11.654;2023-03-19T03:40:16;13.30;;;7.32;;
74269;SDS011;62754;48.252;11.654;2023-03-19T03:42:42;12.93;;;7.40;;
74269;SDS011;62754;48.252;11.654;2023-03-19T03:45:09;11.55;;;7.30;;
74269;SDS011;62754;48.252;11.654;2023-03-19T03:47:35;11.88;;;7.70;;
74269;SDS011;62754;48.252;11.654;2023-03-19T03:50:02;13.10;;;7.57;;
74269;SDS011;62754;48.252;11.654;2023-03-19T03:52:28;12.88;;;7.72;;
74269;SDS011;62754;48.252;11.654;2023-03-19T03:54:54;13.88;;;7.47;;
74269;SDS011;62754;48.252;11.654;2023-03-19T03:57:20;11.73;;;7.68;;
74269;SDS011;62754;48.252;11.654;2023-03-19T03:59:45;10.93;;;7.40;;
74269;SDS011;62754;48.252;11.654;2023-03-19T04:02:11;10.93;;;7.50;;
74269;SDS011;62754;48.252;11.654;2023-03-19T04:04:37;11.20;;;7.53;;
74269;SDS011;62754;48.252;11.654;2023-03-19T04:07:03;10.25;;;7.78;;
74269;SDS011;62754;48.252;11.654;2023-03-19T04:09:28;12.85;;;7.22;;
74269;SDS011;62754;48.252;11.654;2023-03-19T04:11:54;11.40;;;7.30;;
74269;SDS011;62754;48.252;11.654;2023-03-19T04:14:20;13.18;;;7.18;;
74269;SDS011;62754;48.252;11.654;2023-03-19T04:16:46;10.20;;;6.28;;
74269;SDS011;62754;48.252;11.654;2023-03-19T04:19:11;11.70;;;6.38;;
74269;SDS011;62754;48.252;11.654;2023-03-19T04:21:37;11.90;;;6.22;;
74269;SDS011;62754;48.252;11.654;2023-03-19T04:24:03;9.23;;;6.13;;
74269;SDS011;62754;48.252;11.654;2023-03-19T04:26:29;7.38;;;5.75;;
74269;SDS011;62754;48.252;11.654;2023-03-19T04:28:56;12.68;;;7.07;;
74269;SDS011;62754;48.252;11.654;2023-03-19T04:31:22;11.35;;;6.85;;
74269;SDS011;62754;48.252;11.654;2023-03-19T04:33:48;12.57;;;6.00;;
74269;SDS011;62754;48.252;11.654;2023-03-19T04:36:14;8.93;;;5.93;;
74269;SDS011;62754;48.252;11.654;2023-03-19T04:38:40;11.35;;;5.80;;
74269;SDS011;62754;48.252;11.654;2023-03-19T04:41:06;8.50;;;6.22;;
74269;SDS011;62754;48.252;11.654;2023-03-19T04:43:31;11.48;;;6.63;;
74269;SDS011;62754;48.252;11.654;2023-03-19T04:45:57;10.57;;;6.00;;
74269;SDS011;62754;48.252;11.654;2023-03-19T04:48:23;9.85;;;6.18;;
74269;SDS011;62754;48.252;11.654;2023-03-19T04:50:49;12.52;;;5.82;;
74269;SDS011;62754;48.252;11.654;2023-03-19T04:53:14;10.23;;;6.07;;
74269;SDS011;62754;48.252;11.654;2023-03-19T04:55:40;10.35;;;6.78;;
74269;SDS011;62754;48.252;11.654;2023-03-19T04:58:06;11.07;;;6.38;;
74269;SDS011;62754;48.252;11.654;2023-03-19T05:00:32;10.35;;;6.18;;
74269;SDS011;62754;48.252;11.654;2023-03-19T05:02:57;11.55;;;5.50;;
74269;SDS011;62754;48.252;11.654;2023-03-19T05:05:23;12.27;;;7.47;;
74269;SDS011;62754;48.252;11.654;2023-03-19T05:07:49;13.90;;;7.82;;
74269;SDS011;62754;48.252;11.654;2023-03-19T05:10:15;14.65;;;6.90;;
74269;SDS011;62754;48.252;11.654;2023-03-19T05:12:41;10.43;;;7.00;;
74269;SDS011;62754;48.252;11.654;2023-03-19T05:15:06;13.48;;;6.53;;
74269;SDS011;62754;48.252;11.654;2023-03-19T05:17:33;12.07;;;6.40;;
74269;SDS011;62754;48.252;11.654;2023-03-19T05:19:58;8.75;;;5.43;;
74269;SDS011;62754;48.252;11.654;2023-03-19T05:22:24;13.43;;;6.75;;
74269;SDS011;62754;48.252;11.654;2023-03-19T05:24:50;9.10;;;5.55;;
74269;SDS011;62754;48.252;11.654;2023-03-19T05:27:16;10.40;;;6.05;;
74269;SDS011;62754;48.252;11.654;2023-03-19T05:29:41;9.85;;;5.90;;
74269;SDS011;62754;48.252;11.654;2023-03-19T05:32:07;10.05;;;5.90;;
74269;SDS011;62754;48.252;11.654;2023-03-19T05:34:33;12.48;;;6.07;;
74269;SDS011;62754;48.252;11.654;2023-03-19T05:36:59;9.82;;;6.00;;
74269;SDS011;62754;48.252;11.654;2023-03-19T05:39:25;13.88;;;6.07;;
74269;SDS011;62754;48.252;11.654;2023-03-19T05:41:51;11.55;;;6.32;;
74269;SDS011;62754;48.252;11.654;2023-03-19T05:44:17;9.32;;;6.40;;
74269;SDS011;62754;48.252;11.654;2023-03-19T05:46:43;9.57;;;6.15;;
74269;SDS011;62754;48.252;11.654;2023-03-19T05:49:09;10.23;;;6.13;;
74269;SDS011;62754;48.252;11.654;2023-03-19T05:51:34;11.95;;;5.97;;
74269;SDS011;62754;48.252;11.654;2023-03-19T05:54:00;12.15;;;6.93;;
74269;SDS011;62754;48.252;11.654;2023-03-19T05:56:26;9.73;;;6.20;;
74269;SDS011;62754;48.252;11.654;2023-03-19T05:58:53;11.00;;;6.45;;
74269;SDS011;62754;48.252;11.654;2023-03-19T06:01:19;10.57;;;6.53;;
74269;SDS011;62754;48.252;11.654;2023-03-19T06:03:45;9.45;;;6.15;;
74269;SDS011;62754;48.252;11.654;2023-03-19T06:06:10;10.40;;;6.25;;
74269;SDS011;62754;48.252;11.654;2023-03-19T06:08:36;11.65;;;6.80;;
74269;SDS011;62754;48.252;11.654;2023-03-19T06:11:02;10.20;;;6.55;;
74269;SDS011;62754;48.252;11.654;2023-03-19T06:13:28;11.68;;;6.65;;
74269;SDS011;62754;48.252;11.654;2023-03-19T06:15:54;10.63;;;6.68;;
74269;SDS011;62754;48.252;11.654;2023-03-19T06:18:20;9.93;;;6.40;;
74269;SDS011;62754;48.252;11.654;2023-03-19T06:20:46;10.68;;;7.28;;
74269;SDS011;62754;48.252;11.654;2023-03-19T06:23:12;12.75;;;6.80;;
74269;SDS011;62754;48.252;11.654;2023-03-19T06:25:38;11.68;;;6.88;;
74269;SDS011;62754;48.252;11.654;2023-03-19T06:28:04;11.73;;;7.07;;
74269;SDS011;62754;48.252;11.654;2023-03-19T06:30:30;14.52;;;7.13;;
74269;SDS011;62754;48.252;11.654;2023-03-19T06:32:57;11.38;;;6.85;;
74269;SDS011;62754;48.252;11.654;2023-03-19T06:35:23;10.27;;;6.60;;
74269;SDS011;62754;48.252;11.654;2023-03-19T06:37:48;13.23;;;7.57;;
74269;SDS011;62754;48.252;11.654;2023-03-19T06:40:14;10.35;;;7.07;;
74269;SDS011;62754;48.252;11.654;2023-03-19T06:42:43;10.82;;;7.00;;
74269;SDS011;62754;48.252;11.654;2023-03-19T06:45:12;11.70;;;7.63;;
74269;SDS011;62754;48.252;11.654;2023-03-19T06:50:05;8.65;;;6.07;;
74269;SDS011;62754;48.252;11.654;2023-03-19T06:52:31;10.68;;;6.13;;
74269;SDS011;62754;48.252;11.654;2023-03-19T06:54:57;10.63;;;6.63;;
74269;SDS011;62754;48.252;11.654;2023-03-19T06:57:22;10.43;;;6.35;;
74269;SDS011;62754;48.252;11.654;2023-03-19T06:59:57;10.27;;;6.72;;
74269;SDS011;62754;48.252;11.654;2023-03-19T07:02:23;11.35;;;7.03;;
74269;SDS011;62754;48.252;11.654;2023-03-19T07:04:48;12.77;;;6.80;;
74269;SDS011;62754;48.252;11.654;2023-03-19T07:07:14;10.43;;;7.45;;
74269;SDS011;62754;48.252;11.654;2023-03-19T07:09:40;10.98;;;7.22;;
74269;SDS011;62754;48.252;11.654;2023-03-19T07:12:06;11.07;;;6.97;;
74269;SDS011;62754;48.252;11.654;2023-03-19T07:14:32;10.13;;;7.05;;
74269;SDS011;62754;48.252;11.654;2023-03-19T07:16:57;13.25;;;7.93;;
74269;SDS011;62754;48.252;11.654;2023-03-19T07:19:23;13.98;;;7.97;;
74269;SDS011;62754;48.252;11.654;2023-03-19T07:21:49;14.50;;;7.93;;
74269;SDS011;62754;48.252;11.654;2023-03-19T07:24:15;11.48;;;7.63;;
74269;SDS011;62754;48.252;11.654;2023-03-19T07:26:40;16.75;;;7.53;;
74269;SDS011;62754;48.252;11.654;2023-03-19T07:29:06;11.98;;;7.28;;
74269;SDS011;62754;48.252;11.654;2023-03-19T07:31:32;12.32;;;7.35;;
74269;SDS011;62754;48.252;11.654;2023-03-19T07:33:58;11.70;;;6.75;;
74269;SDS011;62754;48.252;11.654;2023-03-19T07:36:24;9.80;;;7.07;;
74269;SDS011;62754;48.252;11.654;2023-03-19T07:38:50;12.27;;;6.50;;
74269;SDS011;62754;48.252;11.654;2023-03-19T07:41:16;10.38;;;6.28;;
74269;SDS011;62754;48.252;11.654;2023-03-19T07:43:41;9.20;;;6.07;;
74269;SDS011;62754;48.252;11.654;2023-03-19T07:46:07;10.55;;;6.03;;
74269;SDS011;62754;48.252;11.654;2023-03-19T07:48:33;9.65;;;6.57;;
74269;SDS011;62754;48.252;11.654;2023-03-19T07:50:59;13.45;;;6.22;;
74269;SDS011;62754;48.252;11.654;2023-03-19T07:53:24;10.40;;;5.90;;
74269;SDS011;62754;48.252;11.654;2023-03-19T07:55:50;13.40;;;6.40;;
74269;SDS011;62754;48.252;11.654;2023-03-19T07:58:16;9.52;;;5.90;;
74269;SDS011;62754;48.252;11.654;2023-03-19T08:00:42;11.32;;;6.60;;
74269;SDS011;62754;48.252;11.654;2023-03-19T08:03:07;8.10;;;5.07;;
74269;SDS011;62754;48.252;11.654;2023-03-19T08:05:33;10.75;;;6.20;;
74269;SDS011;62754;48.252;11.654;2023-03-19T08:07:59;10.07;;;5.57;;
74269;SDS011;62754;48.252;11.654;2023-03-19T08:10:25;7.25;;;5.05;;
74269;SDS011;62754;48.252;11.654;2023-03-19T08:12:51;7.75;;;4.78;;
74269;SDS011;62754;48.252;11.654;2023-03-19T08:15:17;7.55;;;4.65;;
74269;SDS011;62754;48.252;11.654;2023-03-19T08:17:42;8.70;;;4.90;;
74269;SDS011;62754;48.252;11.654;2023-03-19T08:20:09;7.00;;;4.38;;
74269;SDS011;62754;48.252;11.654;2023-03-19T08:22:37;6.25;;;4.25;;
74269;SDS011;62754;48.252;11.654;2023-03-19T08:25:05;5.90;;;4.30;;
74269;SDS011;62754;48.252;11.654;2023-03-19T08:27:40;5.38;;;3.85;;
74269;SDS011;62754;48.252;11.654;2023-03-19T08:30:08;9.88;;;3.88;;
74269;SDS011;62754;48.252;11.654;2023-03-19T08:32:41;7.88;;;3.65;;
74269;SDS011;62754;48.252;11.654;2023-03-19T08:35:13;7.75;;;3.67;;
74269;SDS011;62754;48.252;11.654;2023-03-19T08:37:39;6.03;;;3.83;;
74269;SDS011;62754;48.252;11.654;2023-03-19T08:40:05;6.28;;;3.83;;
74269;SDS011;62754;48.252;11.654;2023-03-19T08:42:31;6.63;;;3.85;;
74269;SDS011;62754;48.252;11.654;2023-03-19T08:45:00;5.25;;;3.70;;
74269;SDS011;62754;48.252;11.654;2023-03-19T08:47:28;8.18;;;3.83;;
74269;SDS011;62754;48.252;11.654;2023-03-19T08:50:11;5.15;;;3.53;;
74269;SDS011;62754;48.252;11.654;2023-03-19T08:52:44;7.30;;;3.33;;
74269;SDS011;62754;48.252;11.654;2023-03-19T08:55:11;7.60;;;3.85;;
74269;SDS011;62754;48.252;11.654;2023-03-19T08:57:37;6.25;;;3.20;;
74269;SDS011;62754;48.252;11.654;2023-03-19T09:00:03;7.65;;;4.28;;
74269;SDS011;62754;48.252;11.654;2023-03-19T09:02:30;6.78;;;3.25;;
74269;SDS011;62754;48.252;11.654;2023-03-19T09:04:56;6.70;;;3.78;;
74269;SDS011;62754;48.252;11.654;2023-03-19T09:07:22;7.40;;;3.33;;
74269;SDS011;62754;48.252;11.654;2023-03-19T09:09:48;5.80;;;3.60;;
74269;SDS011;62754;48.252;11.654;2023-03-19T09:12:15;6.18;;;4.03;;
74269;SDS011;62754;48.252;11.654;2023-03-19T09:14:43;7.25;;;4.07;;
74269;SDS011;62754;48.252;11.654;2023-03-19T09:17:09;9.23;;;3.50;;
74269;SDS011;62754;48.252;11.654;2023-03-19T09:19:35;7.35;;;4.88;;
74269;SDS011;62754;48.252;11.654;2023-03-19T09:22:01;6.25;;;3.75;;
74269;SDS011;62754;48.252;11.654;2023-03-19T09:24:28;5.13;;;2.90;;
74269;SDS011;62754;48.252;11.654;2023-03-19T09:26:54;6.70;;;3.88;;
74269;SDS011;62754;48.252;11.654;2023-03-19T09:29:19;6.10;;;3.38;;
74269;SDS011;62754;48.252;11.654;2023-03-19T09:31:45;6.38;;;3.67;;
74269;SDS011;62754;48.252;11.654;2023-03-19T09:34:11;6.18;;;3.20;;
74269;SDS011;62754;48.252;11.654;2023-03-19T09:36:37;5.97;;;3.33;;
74269;SDS011;62754;48.252;11.654;2023-03-19T09:39:03;6.05;;;3.50;;
74269;SDS011;62754;48.252;11.654;2023-03-19T09:49:28;5.03;;;3.20;;
74269;SDS011;62754;48.252;11.654;2023-03-19T09:52:16;5.03;;;2.95;;
74269;SDS011;62754;48.252;11.654;2023-03-19T09:54:45;5.07;;;3.40;;
74269;SDS011;62754;48.252;11.654;2023-03-19T09:57:14;4.95;;;3.17;;
74269;SDS011;62754;48.252;11.654;2023-03-19T09:59:39;6.57;;;3.13;;
74269;SDS011;62754;48.252;11.654;2023-03-19T10:02:23;4.78;;;3.58;;
74269;SDS011;62754;48.252;11.654;2023-03-19T10:05:21;6.50;;;3.92;;
74269;SDS011;62754;48.252;11.654;2023-03-19T10:11:04;6.28;;;3.42;;
74269;SDS011;62754;48.252;11.654;2023-03-19T10:16:32;5.95;;;3.67;;
74269;SDS011;62754;48.252;11.654;2023-03-19T10:19:02;5.78;;;3.38;;
74269;SDS011;62754;48.252;11.654;2023-03-19T10:21:33;5.00;;;2.90;;
74269;SDS011;62754;48.252;11.654;2023-03-19T10:24:14;5.93;;;3.50;;
74269;SDS011;62754;48.252;11.654;2023-03-19T10:26:46;6.15;;;3.42;;
74269;SDS011;62754;48.252;11.654;2023-03-19T10:29:15;5.75;;;3.63;;
74269;SDS011;62754;48.252;11.654;2023-03-19T10:34:41;6.18;;;3.05;;
74269;SDS011;62754;48.252;11.654;2023-03-19T10:39:37;6.53;;;3.03;;
74269;SDS011;62754;48.252;11.654;2023-03-19T10:45:23;3.92;;;2.63;;
74269;SDS011;62754;48.252;11.654;2023-03-19T10:47:52;4.30;;;2.80;;
74269;SDS011;62754;48.252;11.654;2023-03-19T10:50:19;5.40;;;2.63;;
74269;SDS011;62754;48.252;11.654;2023-03-19T10:52:51;5.07;;;2.55;;
74269;SDS011;62754;48.252;11.654;2023-03-19T10:55:25;4.05;;;2.50;;
74269;SDS011;62754;48.252;11.654;2023-03-19T10:57:56;6.43;;;2.72;;
74269;SDS011;62754;48.252;11.654;2023-03-19T11:00:28;5.53;;;2.95;;
74269;SDS011;62754;48.252;11.654;2023-03-19T11:02:55;4.38;;;2.42;;
74269;SDS011;62754;48.252;11.654;2023-03-19T11:05:24;3.78;;;2.65;;
74269;SDS011;62754;48.252;11.654;2023-03-19T11:08:05;5.07;;;2.50;;
74269;SDS011;62754;48.252;11.654;2023-03-19T11:10:44;5.00;;;2.35;;
74269;SDS011;62754;48.252;11.654;2023-03-19T11:13:17;4.43;;;2.33;;
74269;SDS011;62754;48.252;11.654;2023-03-19T11:15:48;4.47;;;2.05;;
74269;SDS011;62754;48.252;11.654;2023-03-19T11:23:21;3.70;;;2.20;;
74269;SDS011;62754;48.252;11.654;2023-03-19T11:25:51;4.22;;;1.90;;
74269;SDS011;62754;48.252;11.654;2023-03-19T11:28:19;3.20;;;2.40;;
74269;SDS011;62754;48.252;11.654;2023-03-19T11:33:49;4.65;;;2.03;;
74269;SDS011;62754;48.252;11.654;2023-03-19T11:48:05;3.58;;;1.80;;
74269;SDS011;62754;48.252;11.654;2023-03-19T11:53:34;4.10;;;1.95;;
74269;SDS011;62754;48.252;11.654;2023-03-19T12:04:15;3.33;;;1.77;;
74269;SDS011;62754;48.252;11.654;2023-03-19T12:09:52;4.70;;;1.80;;
74269;SDS011;62754;48.252;11.654;2023-03-19T12:12:36;4.18;;;1.88;;
74269;SDS011;62754;48.252;11.654;2023-03-19T12:21:44;4.85;;;1.80;;
74269;SDS011;62754;48.252;11.654;2023-03-19T12:35:15;2.80;;;1.63;;
74269;SDS011;62754;48.252;11.654;2023-03-19T12:40:46;3.28;;;1.73;;
74269;SDS011;62754;48.252;11.654;2023-03-19T12:43:23;4.70;;;2.80;;
74269;SDS011;62754;48.252;11.654;2023-03-19T12:45:58;3.17;;;2.15;;
74269;SDS011;62754;48.252;11.654;2023-03-19T12:48:34;4.43;;;1.98;;
74269;SDS011;62754;48.252;11.654;2023-03-19T12:51:19;2.80;;;1.80;;
74269;SDS011;62754;48.252;11.654;2023-03-19T12:54:33;3.97;;;2.00;;
74269;SDS011;62754;48.252;11.654;2023-03-19T12:56:46;3.10;;;1.75;;
74269;SDS011;62754;48.252;11.654;2023-03-19T12:59:35;3.90;;;2.08;;
74269;SDS011;62754;48.252;11.654;2023-03-19T13:04:53;3.58;;;2.13;;
74269;SDS011;62754;48.252;11.654;2023-03-19T13:10:13;3.75;;;1.98;;
74269;SDS011;62754;48.252;11.654;2023-03-19T13:12:43;3.65;;;2.00;;
74269;SDS011;62754;48.252;11.654;2023-03-19T13:15:12;5.10;;;2.25;;
74269;SDS011;62754;48.252;11.654;2023-03-19T13:21:03;3.85;;;1.90;;
74269;SDS011;62754;48.252;11.654;2023-03-19T13:23:41;3.60;;;2.10;;
74269;SDS011;62754;48.252;11.654;2023-03-19T13:26:09;3.95;;;2.30;;
74269;SDS011;62754;48.252;11.654;2023-03-19T13:28:53;4.93;;;2.40;;
74269;SDS011;62754;48.252;11.654;2023-03-19T13:31:19;4.05;;;2.00;;
74269;SDS011;62754;48.252;11.654;2023-03-19T13:36:28;5.07;;;2.40;;
74269;SDS011;62754;48.252;11.654;2023-03-19T13:38:55;4.55;;;2.40;;
74269;SDS011;62754;48.252;11.654;2023-03-19T13:46:51;5.70;;;3.15;;
74269;SDS011;62754;48.252;11.654;2023-03-19T13:51:55;4.38;;;2.90;;
74269;SDS011;62754;48.252;11.654;2023-03-19T13:54:31;4.38;;;2.70;;
74269;SDS011;62754;48.252;11.654;2023-03-19T13:59:43;5.80;;;2.38;;
74269;SDS011;62754;48.252;11.654;2023-03-19T14:07:25;4.13;;;2.33;;
74269;SDS011;62754;48.252;11.654;2023-03-19T14:12:57;6.03;;;3.90;;
74269;SDS011;62754;48.252;11.654;2023-03-19T14:17:55;5.90;;;2.65;;
74269;SDS011;62754;48.252;11.654;2023-03-19T14:23:25;4.05;;;2.53;;
74269;SDS011;62754;48.252;11.654;2023-03-19T14:28:56;4.35;;;2.40;;
74269;SDS011;62754;48.252;11.654;2023-03-19T14:31:22;4.05;;;2.35;;
74269;SDS011;62754;48.252;11.654;2023-03-19T14:33:57;3.85;;;2.35;;
74269;SDS011;62754;48.252;11.654;2023-03-19T14:36:30;4.15;;;2.15;;
74269;SDS011;62754;48.252;11.654;2023-03-19T14:38:59;3.60;;;1.88;;
74269;SDS011;62754;48.252;11.654;2023-03-19T14:41:32;4.97;;;2.30;;
74269;SDS011;62754;48.252;11.654;2023-03-19T14:49:55;5.70;;;2.75;;
74269;SDS011;62754;48.252;11.654;2023-03-19T14:52:56;3.38;;;2.13;;
74269;SDS011;62754;48.252;11.654;2023-03-19T14:55:39;4.25;;;2.75;;
74269;SDS011;62754;48.252;11.654;2023-03-19T14:58:12;4.28;;;2.75;;
74269;SDS011;62754;48.252;11.654;2023-03-19T15:00:42;6.72;;;3.92;;
74269;SDS011;62754;48.252;11.654;2023-03-19T15:03:30;4.18;;;2.65;;
74269;SDS011;62754;48.252;11.654;2023-03-19T15:06:01;5.28;;;2.45;;
74269;SDS011;62754;48.252;11.654;2023-03-19T15:08:30;4.03;;;2.70;;
74269;SDS011;62754;48.252;11.654;2023-03-19T15:19:30;4.70;;;2.63;;
74269;SDS011;62754;48.252;11.654;2023-03-19T15:22:31;4.50;;;2.80;;
74269;SDS011;62754;48.252;11.654;2023-03-19T15:25:09;3.47;;;2.40;;
74269;SDS011;62754;48.252;11.654;2023-03-19T15:27:38;4.45;;;2.15;;
74269;SDS011;62754;48.252;11.654;2023-03-19T15:42:27;3.58;;;2.10;;
74269;SDS011;62754;48.252;11.654;2023-03-19T15:47:38;4.25;;;2.05;;
74269;SDS011;62754;48.252;11.654;2023-03-19T15:50:12;5.18;;;2.55;;
74269;SDS011;62754;48.252;11.654;2023-03-19T15:52:42;3.83;;;2.30;;
74269;SDS011;62754;48.252;11.654;2023-03-19T15:55:12;4.35;;;2.60;;
74269;SDS011;62754;48.252;11.654;2023-03-19T15:57:39;4.25;;;2.53;;
74269;SDS011;62754;48.252;11.654;2023-03-19T16:00:07;3.97;;;2.65;;
74269;SDS011;62754;48.252;11.654;2023-03-19T16:02:34;4.68;;;2.42;;
74269;SDS011;62754;48.252;11.654;2023-03-19T16:05:04;4.47;;;2.20;;
74269;SDS011;62754;48.252;11.654;2023-03-19T16:09:55;3.78;;;2.30;;
74269;SDS011;62754;48.252;11.654;2023-03-19T16:12:33;4.05;;;2.60;;
74269;SDS011;62754;48.252;11.654;2023-03-19T16:15:18;5.13;;;2.67;;
74269;SDS011;62754;48.252;11.654;2023-03-19T16:21:26;5.50;;;2.42;;
74269;SDS011;62754;48.252;11.654;2023-03-19T16:24:03;4.60;;;2.38;;
74269;SDS011;62754;48.252;11.654;2023-03-19T16:26:40;4.07;;;2.53;;
74269;SDS011;62754;48.252;11.654;2023-03-19T16:32:36;4.40;;;2.40;;
74269;SDS011;62754;48.252;11.654;2023-03-19T16:34:51;5.70;;;3.28;;
74269;SDS011;62754;48.252;11.654;2023-03-19T16:37:26;5.32;;;2.65;;
74269;SDS011;62754;48.252;11.654;2023-03-19T16:42:50;5.65;;;2.53;;
74269;SDS011;62754;48.252;11.654;2023-03-19T16:45:18;3.30;;;2.10;;
74269;SDS011;62754;48.252;11.654;2023-03-19T16:47:49;4.53;;;2.55;;
74269;SDS011;62754;48.252;11.654;2023-03-19T16:50:17;5.95;;;3.03;;
74269;SDS011;62754;48.252;11.654;2023-03-19T16:52:45;5.93;;;2.78;;
74269;SDS011;62754;48.252;11.654;2023-03-19T16:58:25;5.43;;;2.70;;
74269;SDS011;62754;48.252;11.654;2023-03-19T17:00:45;4.03;;;2.30;;
74269;SDS011;62754;48.252;11.654;2023-03-19T17:03:12;5.55;;;2.50;;
74269;SDS011;62754;48.252;11.654;2023-03-19T17:05:40;5.07;;;2.42;;
74269;SDS011;62754;48.252;11.654;2023-03-19T17:08:07;4.97;;;2.60;;
74269;SDS011;62754;48.252;11.654;2023-03-19T17:10:32;4.70;;;2.70;;
74269;SDS011;62754;48.252;11.654;2023-03-19T17:13:01;4.85;;;2.90;;
74269;SDS011;62754;48.252;11.654;2023-03-19T17:17:59;4.38;;;2.20;;
74269;SDS011;62754;48.252;11.654;2023-03-19T17:23:38;4.22;;;2.65;;
74269;SDS011;62754;48.252;11.654;2023-03-19T17:26:49;4.47;;;2.90;;
74269;SDS011;62754;48.252;11.654;2023-03-19T17:29:40;3.92;;;2.22;;
74269;SDS011;62754;48.252;11.654;2023-03-19T17:32:06;4.53;;;2.30;;